sensor_id;sensor_type;location;lat;lon;timestamp;P1;durP1;ratioP1;P2;durP2;ratioP2
25299;SDS011;13241;51.208;4.432;2022-08-07T00:02:11;2.67;;;1.77;;
25299;SDS011;13241;51.208;4.432;2022-08-07T00:05:02;3.05;;;2.08;;
25299;SDS011;13241;51.208;4.432;2022-08-07T00:07:31;6.35;;;2.28;;
25299;SDS011;13241;51.208;4.432;2022-08-07T00:10:06;2.58;;;1.65;;
25299;SDS011;13241;51.208;4.432;2022-08-07T00:12:53;1.58;;;1.48;;
25299;SDS011;13241;51.208;4.432;2022-08-07T00:15:27;1.90;;;1.48;;
25299;SDS011;13241;51.208;4.432;2022-08-07T00:18:12;1.95;;;1.42;;
25299;SDS011;13241;51.208;4.432;2022-08-07T00:20:44;4.32;;;1.70;;
25299;SDS011;13241;51.208;4.432;2022-08-07T00:23:13;2.72;;;1.55;;
25299;SDS011;13241;51.208;4.432;2022-08-07T00:25:42;2.03;;;1.20;;
25299;SDS011;13241;51.208;4.432;2022-08-07T00:28:18;2.50;;;1.63;;
25299;SDS011;13241;51.208;4.432;2022-08-07T00:30:47;2.65;;;1.65;;
25299;SDS011;13241;51.208;4.432;2022-08-07T00:33:14;6.03;;;2.88;;
25299;SDS011;13241;51.208;4.432;2022-08-07T00:35:42;5.47;;;2.65;;
25299;SDS011;13241;51.208;4.432;2022-08-07T00:38:15;4.85;;;2.40;;
25299;SDS011;13241;51.208;4.432;2022-08-07T00:40:56;5.40;;;1.95;;
25299;SDS011;13241;51.208;4.432;2022-08-07T00:43:25;3.03;;;1.48;;
25299;SDS011;13241;51.208;4.432;2022-08-07T00:46:12;1.58;;;1.05;;
25299;SDS011;13241;51.208;4.432;2022-08-07T00:48:39;3.15;;;1.58;;
25299;SDS011;13241;51.208;4.432;2022-08-07T00:51:07;3.78;;;1.50;;
25299;SDS011;13241;51.208;4.432;2022-08-07T00:53:35;5.35;;;1.48;;
25299;SDS011;13241;51.208;4.432;2022-08-07T00:56:16;3.67;;;1.80;;
25299;SDS011;13241;51.208;4.432;2022-08-07T00:58:44;2.53;;;1.52;;
25299;SDS011;13241;51.208;4.432;2022-08-07T01:01:16;2.67;;;1.73;;
25299;SDS011;13241;51.208;4.432;2022-08-07T01:03:44;1.70;;;1.60;;
25299;SDS011;13241;51.208;4.432;2022-08-07T01:06:25;4.93;;;1.95;;
25299;SDS011;13241;51.208;4.432;2022-08-07T01:08:57;8.23;;;1.50;;
25299;SDS011;13241;51.208;4.432;2022-08-07T01:11:30;6.22;;;1.90;;
25299;SDS011;13241;51.208;4.432;2022-08-07T01:14:18;2.95;;;1.50;;
25299;SDS011;13241;51.208;4.432;2022-08-07T01:16:54;2.65;;;1.63;;
25299;SDS011;13241;51.208;4.432;2022-08-07T01:19:22;6.50;;;1.98;;
25299;SDS011;13241;51.208;4.432;2022-08-07T01:21:52;3.25;;;1.67;;
25299;SDS011;13241;51.208;4.432;2022-08-07T01:24:25;7.13;;;1.77;;
25299;SDS011;13241;51.208;4.432;2022-08-07T01:26:58;6.30;;;1.80;;
25299;SDS011;13241;51.208;4.432;2022-08-07T01:29:27;3.85;;;1.67;;
25299;SDS011;13241;51.208;4.432;2022-08-07T01:31:59;4.55;;;1.80;;
25299;SDS011;13241;51.208;4.432;2022-08-07T01:34:31;3.90;;;1.95;;
25299;SDS011;13241;51.208;4.432;2022-08-07T01:37:04;6.33;;;1.73;;
25299;SDS011;13241;51.208;4.432;2022-08-07T01:39:36;5.30;;;1.70;;
25299;SDS011;13241;51.208;4.432;2022-08-07T01:42:32;7.97;;;1.60;;
25299;SDS011;13241;51.208;4.432;2022-08-07T01:45:06;3.33;;;1.85;;
25299;SDS011;13241;51.208;4.432;2022-08-07T01:47:45;3.03;;;1.45;;
25299;SDS011;13241;51.208;4.432;2022-08-07T01:50:35;2.20;;;1.30;;
25299;SDS011;13241;51.208;4.432;2022-08-07T01:53:09;4.30;;;1.60;;
25299;SDS011;13241;51.208;4.432;2022-08-07T01:55:52;2.92;;;1.70;;
25299;SDS011;13241;51.208;4.432;2022-08-07T01:58:26;4.70;;;2.15;;
25299;SDS011;13241;51.208;4.432;2022-08-07T02:01:03;4.95;;;2.08;;
25299;SDS011;13241;51.208;4.432;2022-08-07T02:04:09;2.25;;;1.33;;
25299;SDS011;13241;51.208;4.432;2022-08-07T02:07:01;4.82;;;2.17;;
25299;SDS011;13241;51.208;4.432;2022-08-07T02:09:29;4.38;;;1.85;;
25299;SDS011;13241;51.208;4.432;2022-08-07T02:12:18;8.65;;;2.13;;
25299;SDS011;13241;51.208;4.432;2022-08-07T02:14:57;5.57;;;1.85;;
25299;SDS011;13241;51.208;4.432;2022-08-07T02:17:40;4.78;;;2.05;;
25299;SDS011;13241;51.208;4.432;2022-08-07T02:20:17;2.67;;;1.88;;
25299;SDS011;13241;51.208;4.432;2022-08-07T02:22:52;3.90;;;1.85;;
25299;SDS011;13241;51.208;4.432;2022-08-07T02:25:25;5.28;;;1.88;;
25299;SDS011;13241;51.208;4.432;2022-08-07T02:28:15;4.38;;;1.60;;
25299;SDS011;13241;51.208;4.432;2022-08-07T02:30:56;4.18;;;1.88;;
25299;SDS011;13241;51.208;4.432;2022-08-07T02:33:35;2.28;;;1.80;;
25299;SDS011;13241;51.208;4.432;2022-08-07T02:36:25;3.53;;;2.10;;
25299;SDS011;13241;51.208;4.432;2022-08-07T02:39:06;2.45;;;2.03;;
25299;SDS011;13241;51.208;4.432;2022-08-07T02:41:44;2.75;;;1.80;;
25299;SDS011;13241;51.208;4.432;2022-08-07T02:44:17;3.65;;;1.95;;
25299;SDS011;13241;51.208;4.432;2022-08-07T02:46:47;2.50;;;1.95;;
25299;SDS011;13241;51.208;4.432;2022-08-07T02:49:20;3.70;;;2.45;;
25299;SDS011;13241;51.208;4.432;2022-08-07T02:52:08;3.63;;;2.63;;
25299;SDS011;13241;51.208;4.432;2022-08-07T02:54:41;5.72;;;2.45;;
25299;SDS011;13241;51.208;4.432;2022-08-07T02:57:11;7.47;;;2.20;;
25299;SDS011;13241;51.208;4.432;2022-08-07T02:59:40;7.07;;;2.67;;
25299;SDS011;13241;51.208;4.432;2022-08-07T03:02:21;5.22;;;2.38;;
25299;SDS011;13241;51.208;4.432;2022-08-07T03:04:48;3.63;;;2.35;;
25299;SDS011;13241;51.208;4.432;2022-08-07T03:07:16;4.05;;;2.35;;
25299;SDS011;13241;51.208;4.432;2022-08-07T03:10:05;5.93;;;2.50;;
25299;SDS011;13241;51.208;4.432;2022-08-07T03:12:34;3.88;;;2.40;;
25299;SDS011;13241;51.208;4.432;2022-08-07T03:15:09;6.63;;;2.55;;
25299;SDS011;13241;51.208;4.432;2022-08-07T03:17:38;3.85;;;2.17;;
25299;SDS011;13241;51.208;4.432;2022-08-07T03:20:21;4.10;;;2.63;;
25299;SDS011;13241;51.208;4.432;2022-08-07T03:22:49;4.15;;;2.33;;
25299;SDS011;13241;51.208;4.432;2022-08-07T03:25:18;3.70;;;2.03;;
25299;SDS011;13241;51.208;4.432;2022-08-07T03:27:47;3.33;;;1.88;;
25299;SDS011;13241;51.208;4.432;2022-08-07T03:30:25;2.78;;;2.20;;
25299;SDS011;13241;51.208;4.432;2022-08-07T03:32:53;3.88;;;2.20;;
25299;SDS011;13241;51.208;4.432;2022-08-07T03:35:26;3.67;;;2.22;;
25299;SDS011;13241;51.208;4.432;2022-08-07T03:38:14;8.18;;;3.00;;
25299;SDS011;13241;51.208;4.432;2022-08-07T03:40:48;8.80;;;2.45;;
25299;SDS011;13241;51.208;4.432;2022-08-07T03:43:24;8.95;;;2.85;;
25299;SDS011;13241;51.208;4.432;2022-08-07T03:46:00;3.72;;;2.08;;
25299;SDS011;13241;51.208;4.432;2022-08-07T03:48:36;4.35;;;2.28;;
25299;SDS011;13241;51.208;4.432;2022-08-07T03:51:24;7.57;;;2.47;;
25299;SDS011;13241;51.208;4.432;2022-08-07T03:54:13;6.28;;;2.25;;
25299;SDS011;13241;51.208;4.432;2022-08-07T03:57:01;4.13;;;2.40;;
25299;SDS011;13241;51.208;4.432;2022-08-07T03:59:34;3.93;;;2.23;;
25299;SDS011;13241;51.208;4.432;2022-08-07T04:02:12;5.75;;;2.33;;
25299;SDS011;13241;51.208;4.432;2022-08-07T04:04:43;4.97;;;3.00;;
25299;SDS011;13241;51.208;4.432;2022-08-07T04:07:11;3.65;;;2.13;;
25299;SDS011;13241;51.208;4.432;2022-08-07T04:09:57;8.20;;;2.30;;
25299;SDS011;13241;51.208;4.432;2022-08-07T04:12:28;6.63;;;2.28;;
25299;SDS011;13241;51.208;4.432;2022-08-07T04:15:00;4.28;;;2.42;;
25299;SDS011;13241;51.208;4.432;2022-08-07T04:17:33;4.22;;;2.22;;
25299;SDS011;13241;51.208;4.432;2022-08-07T04:20:21;3.70;;;2.58;;
25299;SDS011;13241;51.208;4.432;2022-08-07T04:22:50;4.78;;;2.45;;
25299;SDS011;13241;51.208;4.432;2022-08-07T04:25:31;4.38;;;2.63;;
25299;SDS011;13241;51.208;4.432;2022-08-07T04:28:06;4.25;;;2.67;;
25299;SDS011;13241;51.208;4.432;2022-08-07T04:30:34;3.97;;;2.75;;
25299;SDS011;13241;51.208;4.432;2022-08-07T04:33:26;7.05;;;3.05;;
25299;SDS011;13241;51.208;4.432;2022-08-07T04:35:56;4.38;;;2.75;;
25299;SDS011;13241;51.208;4.432;2022-08-07T04:38:26;4.03;;;2.65;;
25299;SDS011;13241;51.208;4.432;2022-08-07T04:40:55;4.38;;;2.30;;
25299;SDS011;13241;51.208;4.432;2022-08-07T04:46:28;3.28;;;2.22;;
25299;SDS011;13241;51.208;4.432;2022-08-07T04:52:40;3.95;;;2.30;;
25299;SDS011;13241;51.208;4.432;2022-08-07T04:55:22;4.63;;;2.53;;
25299;SDS011;13241;51.208;4.432;2022-08-07T04:58:18;7.03;;;2.15;;
25299;SDS011;13241;51.208;4.432;2022-08-07T05:01:23;9.85;;;2.85;;
25299;SDS011;13241;51.208;4.432;2022-08-07T05:07:06;6.15;;;2.38;;
25299;SDS011;13241;51.208;4.432;2022-08-07T05:10:22;4.70;;;2.38;;
25299;SDS011;13241;51.208;4.432;2022-08-07T05:12:57;3.95;;;2.10;;
25299;SDS011;13241;51.208;4.432;2022-08-07T05:15:49;4.22;;;2.72;;
25299;SDS011;13241;51.208;4.432;2022-08-07T05:18:27;5.05;;;2.53;;
25299;SDS011;13241;51.208;4.432;2022-08-07T05:20:59;5.13;;;2.40;;
25299;SDS011;13241;51.208;4.432;2022-08-07T05:23:37;5.70;;;2.80;;
25299;SDS011;13241;51.208;4.432;2022-08-07T05:26:13;8.55;;;2.55;;
25299;SDS011;13241;51.208;4.432;2022-08-07T05:28:54;5.40;;;3.63;;
25299;SDS011;13241;51.208;4.432;2022-08-07T05:31:28;6.03;;;3.38;;
25299;SDS011;13241;51.208;4.432;2022-08-07T05:34:02;4.65;;;2.75;;
25299;SDS011;13241;51.208;4.432;2022-08-07T05:36:45;7.65;;;3.63;;
25299;SDS011;13241;51.208;4.432;2022-08-07T05:39:29;7.55;;;3.35;;
25299;SDS011;13241;51.208;4.432;2022-08-07T05:42:16;8.23;;;3.35;;
25299;SDS011;13241;51.208;4.432;2022-08-07T05:45:01;4.97;;;2.72;;
25299;SDS011;13241;51.208;4.432;2022-08-07T05:47:53;9.00;;;3.67;;
25299;SDS011;13241;51.208;4.432;2022-08-07T05:50:31;7.88;;;2.80;;
25299;SDS011;13241;51.208;4.432;2022-08-07T05:53:00;9.82;;;3.38;;
25299;SDS011;13241;51.208;4.432;2022-08-07T05:55:29;5.32;;;2.83;;
25299;SDS011;13241;51.208;4.432;2022-08-07T05:58:19;3.78;;;2.50;;
25299;SDS011;13241;51.208;4.432;2022-08-07T06:01:04;4.72;;;2.63;;
25299;SDS011;13241;51.208;4.432;2022-08-07T06:03:38;7.28;;;3.10;;
25299;SDS011;13241;51.208;4.432;2022-08-07T06:06:22;3.78;;;2.58;;
25299;SDS011;13241;51.208;4.432;2022-08-07T06:08:58;5.05;;;2.92;;
25299;SDS011;13241;51.208;4.432;2022-08-07T06:11:29;4.65;;;2.65;;
25299;SDS011;13241;51.208;4.432;2022-08-07T06:13:57;4.43;;;2.85;;
25299;SDS011;13241;51.208;4.432;2022-08-07T06:16:46;3.30;;;2.45;;
25299;SDS011;13241;51.208;4.432;2022-08-07T06:19:23;5.45;;;2.90;;
25299;SDS011;13241;51.208;4.432;2022-08-07T06:22:11;3.97;;;2.50;;
25299;SDS011;13241;51.208;4.432;2022-08-07T06:25:13;6.70;;;2.45;;
25299;SDS011;13241;51.208;4.432;2022-08-07T06:27:40;7.75;;;2.63;;
25299;SDS011;13241;51.208;4.432;2022-08-07T06:30:27;5.57;;;1.98;;
25299;SDS011;13241;51.208;4.432;2022-08-07T06:33:14;3.63;;;2.30;;
25299;SDS011;13241;51.208;4.432;2022-08-07T06:35:45;2.83;;;1.92;;
25299;SDS011;13241;51.208;4.432;2022-08-07T06:38:33;2.85;;;2.00;;
25299;SDS011;13241;51.208;4.432;2022-08-07T06:41:03;5.85;;;2.40;;
25299;SDS011;13241;51.208;4.432;2022-08-07T06:43:38;2.40;;;1.55;;
25299;SDS011;13241;51.208;4.432;2022-08-07T06:46:24;3.20;;;1.80;;
25299;SDS011;13241;51.208;4.432;2022-08-07T06:49:00;4.55;;;2.60;;
25299;SDS011;13241;51.208;4.432;2022-08-07T06:51:32;6.60;;;2.05;;
25299;SDS011;13241;51.208;4.432;2022-08-07T06:54:18;2.00;;;1.70;;
25299;SDS011;13241;51.208;4.432;2022-08-07T06:57:07;3.83;;;1.85;;
25299;SDS011;13241;51.208;4.432;2022-08-07T06:59:40;2.50;;;1.67;;
25299;SDS011;13241;51.208;4.432;2022-08-07T07:02:28;3.03;;;1.67;;
25299;SDS011;13241;51.208;4.432;2022-08-07T07:05:19;4.45;;;1.70;;
25299;SDS011;13241;51.208;4.432;2022-08-07T07:08:07;2.50;;;1.40;;
25299;SDS011;13241;51.208;4.432;2022-08-07T07:10:43;1.90;;;1.38;;
25299;SDS011;13241;51.208;4.432;2022-08-07T07:13:24;3.75;;;1.70;;
25299;SDS011;13241;51.208;4.432;2022-08-07T07:16:17;2.00;;;1.30;;
25299;SDS011;13241;51.208;4.432;2022-08-07T07:18:49;5.60;;;1.33;;
25299;SDS011;13241;51.208;4.432;2022-08-07T07:24:06;3.10;;;1.25;;
25299;SDS011;13241;51.208;4.432;2022-08-07T07:26:38;1.90;;;1.42;;
25299;SDS011;13241;51.208;4.432;2022-08-07T07:29:17;3.33;;;1.60;;
25299;SDS011;13241;51.208;4.432;2022-08-07T07:32:08;3.90;;;1.73;;
25299;SDS011;13241;51.208;4.432;2022-08-07T07:34:43;6.43;;;1.83;;
25299;SDS011;13241;51.208;4.432;2022-08-07T07:37:16;3.45;;;1.85;;
25299;SDS011;13241;51.208;4.432;2022-08-07T07:40:05;2.58;;;1.30;;
25299;SDS011;13241;51.208;4.432;2022-08-07T07:42:40;3.13;;;1.35;;
25299;SDS011;13241;51.208;4.432;2022-08-07T07:45:17;1.50;;;1.30;;
25299;SDS011;13241;51.208;4.432;2022-08-07T07:48:06;1.80;;;1.42;;
25299;SDS011;13241;51.208;4.432;2022-08-07T07:50:36;5.13;;;1.70;;
25299;SDS011;13241;51.208;4.432;2022-08-07T07:53:06;4.43;;;1.92;;
25299;SDS011;13241;51.208;4.432;2022-08-07T07:55:51;2.83;;;1.90;;
25299;SDS011;13241;51.208;4.432;2022-08-07T07:58:31;2.15;;;1.23;;
25299;SDS011;13241;51.208;4.432;2022-08-07T08:01:07;4.15;;;1.65;;
25299;SDS011;13241;51.208;4.432;2022-08-07T08:03:54;4.70;;;1.92;;
25299;SDS011;13241;51.208;4.432;2022-08-07T08:06:37;3.50;;;1.40;;
25299;SDS011;13241;51.208;4.432;2022-08-07T08:09:18;6.82;;;1.65;;
25299;SDS011;13241;51.208;4.432;2022-08-07T08:11:49;2.58;;;1.40;;
25299;SDS011;13241;51.208;4.432;2022-08-07T08:14:32;3.70;;;1.40;;
25299;SDS011;13241;51.208;4.432;2022-08-07T08:17:02;2.30;;;1.23;;
25299;SDS011;13241;51.208;4.432;2022-08-07T08:19:54;2.67;;;1.40;;
25299;SDS011;13241;51.208;4.432;2022-08-07T08:22:45;2.08;;;1.23;;
25299;SDS011;13241;51.208;4.432;2022-08-07T08:25:33;3.15;;;1.77;;
25299;SDS011;13241;51.208;4.432;2022-08-07T08:28:24;2.72;;;1.40;;
25299;SDS011;13241;51.208;4.432;2022-08-07T08:31:05;3.47;;;1.58;;
25299;SDS011;13241;51.208;4.432;2022-08-07T08:33:41;2.38;;;1.52;;
25299;SDS011;13241;51.208;4.432;2022-08-07T08:36:25;1.95;;;1.08;;
25299;SDS011;13241;51.208;4.432;2022-08-07T08:38:56;2.72;;;1.20;;
25299;SDS011;13241;51.208;4.432;2022-08-07T08:44:26;1.73;;;1.48;;
25299;SDS011;13241;51.208;4.432;2022-08-07T08:47:16;2.03;;;1.25;;
25299;SDS011;13241;51.208;4.432;2022-08-07T08:56:01;3.35;;;1.30;;
25299;SDS011;13241;51.208;4.432;2022-08-07T09:07:28;5.00;;;1.30;;
25299;SDS011;13241;51.208;4.432;2022-08-07T09:10:23;1.95;;;1.17;;
25299;SDS011;13241;51.208;4.432;2022-08-07T09:21:56;2.58;;;1.48;;
25299;SDS011;13241;51.208;4.432;2022-08-07T09:24:58;2.70;;;1.30;;
25299;SDS011;13241;51.208;4.432;2022-08-07T09:27:58;1.20;;;0.77;;
25299;SDS011;13241;51.208;4.432;2022-08-07T09:31:02;6.68;;;1.05;;
25299;SDS011;13241;51.208;4.432;2022-08-07T09:34:05;2.63;;;0.70;;
25299;SDS011;13241;51.208;4.432;2022-08-07T10:07:33;1.60;;;1.03;;
25299;SDS011;13241;51.208;4.432;2022-08-07T10:28:30;2.03;;;1.25;;
25299;SDS011;13241;51.208;4.432;2022-08-07T10:37:12;5.55;;;0.80;;
25299;SDS011;13241;51.208;4.432;2022-08-07T10:43:21;1.23;;;0.95;;
25299;SDS011;13241;51.208;4.432;2022-08-07T10:46:07;4.95;;;1.17;;
25299;SDS011;13241;51.208;4.432;2022-08-07T10:48:47;2.38;;;1.00;;
25299;SDS011;13241;51.208;4.432;2022-08-07T10:51:36;1.43;;;0.93;;
25299;SDS011;13241;51.208;4.432;2022-08-07T10:58:08;3.72;;;1.33;;
25299;SDS011;13241;51.208;4.432;2022-08-07T11:03:41;1.83;;;0.80;;
25299;SDS011;13241;51.208;4.432;2022-08-07T11:07:04;5.70;;;1.30;;
25299;SDS011;13241;51.208;4.432;2022-08-07T11:10:05;2.03;;;0.90;;
25299;SDS011;13241;51.208;4.432;2022-08-07T11:12:42;1.67;;;0.90;;
25299;SDS011;13241;51.208;4.432;2022-08-07T11:15:29;2.30;;;1.15;;
25299;SDS011;13241;51.208;4.432;2022-08-07T11:20:45;3.92;;;0.75;;
25299;SDS011;13241;51.208;4.432;2022-08-07T11:26:22;4.25;;;1.15;;
25299;SDS011;13241;51.208;4.432;2022-08-07T11:29:05;4.30;;;1.35;;
25299;SDS011;13241;51.208;4.432;2022-08-07T11:34:55;7.60;;;1.65;;
25299;SDS011;13241;51.208;4.432;2022-08-07T12:08:06;1.95;;;1.45;;
25299;SDS011;13241;51.208;4.432;2022-08-07T12:11:00;3.95;;;1.60;;
25299;SDS011;13241;51.208;4.432;2022-08-07T12:14:00;1.92;;;1.58;;
25299;SDS011;13241;51.208;4.432;2022-08-07T12:16:46;3.95;;;1.70;;
25299;SDS011;13241;51.208;4.432;2022-08-07T12:19:25;1.73;;;1.17;;
25299;SDS011;13241;51.208;4.432;2022-08-07T12:22:43;4.97;;;1.40;;
25299;SDS011;13241;51.208;4.432;2022-08-07T12:25:31;2.53;;;1.60;;
25299;SDS011;13241;51.208;4.432;2022-08-07T12:34:23;1.10;;;1.00;;
25299;SDS011;13241;51.208;4.432;2022-08-07T12:36:53;2.83;;;1.25;;
25299;SDS011;13241;51.208;4.432;2022-08-07T12:39:24;5.68;;;1.55;;
25299;SDS011;13241;51.208;4.432;2022-08-07T12:42:10;2.40;;;1.30;;
25299;SDS011;13241;51.208;4.432;2022-08-07T12:44:42;2.08;;;1.08;;
25299;SDS011;13241;51.208;4.432;2022-08-07T12:50:32;2.40;;;1.35;;
25299;SDS011;13241;51.208;4.432;2022-08-07T12:59:03;1.90;;;1.20;;
25299;SDS011;13241;51.208;4.432;2022-08-07T13:04:40;2.38;;;1.30;;
25299;SDS011;13241;51.208;4.432;2022-08-07T13:07:56;1.83;;;0.90;;
25299;SDS011;13241;51.208;4.432;2022-08-07T13:16:30;5.75;;;1.60;;
25299;SDS011;13241;51.208;4.432;2022-08-07T13:19:26;1.20;;;0.90;;
25299;SDS011;13241;51.208;4.432;2022-08-07T13:22:23;1.52;;;0.90;;
25299;SDS011;13241;51.208;4.432;2022-08-07T13:25:26;2.13;;;1.05;;
25299;SDS011;13241;51.208;4.432;2022-08-07T13:28:01;3.42;;;1.30;;
25299;SDS011;13241;51.208;4.432;2022-08-07T13:30:54;1.40;;;0.82;;
25299;SDS011;13241;51.208;4.432;2022-08-07T13:33:33;1.35;;;1.13;;
25299;SDS011;13241;51.208;4.432;2022-08-07T13:39:24;2.28;;;1.13;;
25299;SDS011;13241;51.208;4.432;2022-08-07T13:42:14;8.32;;;1.38;;
25299;SDS011;13241;51.208;4.432;2022-08-07T13:44:46;1.33;;;0.95;;
25299;SDS011;13241;51.208;4.432;2022-08-07T13:47:36;2.05;;;1.00;;
25299;SDS011;13241;51.208;4.432;2022-08-07T13:50:24;2.10;;;0.82;;
25299;SDS011;13241;51.208;4.432;2022-08-07T13:53:01;1.75;;;1.00;;
25299;SDS011;13241;51.208;4.432;2022-08-07T13:55:30;3.67;;;1.10;;
25299;SDS011;13241;51.208;4.432;2022-08-07T13:58:09;2.47;;;1.10;;
25299;SDS011;13241;51.208;4.432;2022-08-07T14:00:58;3.13;;;0.98;;
25299;SDS011;13241;51.208;4.432;2022-08-07T14:03:34;2.20;;;0.82;;
25299;SDS011;13241;51.208;4.432;2022-08-07T14:06:33;1.77;;;1.00;;
25299;SDS011;13241;51.208;4.432;2022-08-07T14:09:04;1.30;;;0.95;;
25299;SDS011;13241;51.208;4.432;2022-08-07T14:11:48;1.00;;;0.77;;
25299;SDS011;13241;51.208;4.432;2022-08-07T14:14:32;1.23;;;0.93;;
25299;SDS011;13241;51.208;4.432;2022-08-07T14:17:08;2.63;;;1.00;;
25299;SDS011;13241;51.208;4.432;2022-08-07T14:19:59;1.42;;;0.80;;
25299;SDS011;13241;51.208;4.432;2022-08-07T14:23:02;2.22;;;1.15;;
25299;SDS011;13241;51.208;4.432;2022-08-07T14:25:31;3.60;;;1.00;;
25299;SDS011;13241;51.208;4.432;2022-08-07T14:28:13;2.47;;;1.13;;
25299;SDS011;13241;51.208;4.432;2022-08-07T14:30:48;1.70;;;1.00;;
25299;SDS011;13241;51.208;4.432;2022-08-07T14:33:17;2.55;;;0.98;;
25299;SDS011;13241;51.208;4.432;2022-08-07T14:35:52;1.00;;;0.73;;
25299;SDS011;13241;51.208;4.432;2022-08-07T14:38:24;3.20;;;0.93;;
25299;SDS011;13241;51.208;4.432;2022-08-07T14:41:05;2.30;;;1.00;;
25299;SDS011;13241;51.208;4.432;2022-08-07T14:43:41;1.90;;;1.00;;
25299;SDS011;13241;51.208;4.432;2022-08-07T14:46:30;1.17;;;0.75;;
25299;SDS011;13241;51.208;4.432;2022-08-07T14:48:59;1.63;;;0.60;;
25299;SDS011;13241;51.208;4.432;2022-08-07T14:51:47;1.80;;;0.73;;
25299;SDS011;13241;51.208;4.432;2022-08-07T14:54:36;1.08;;;0.88;;
25299;SDS011;13241;51.208;4.432;2022-08-07T14:57:11;3.65;;;1.13;;
25299;SDS011;13241;51.208;4.432;2022-08-07T14:59:45;3.35;;;1.08;;
25299;SDS011;13241;51.208;4.432;2022-08-07T15:02:35;4.10;;;1.67;;
25299;SDS011;13241;51.208;4.432;2022-08-07T15:05:04;2.55;;;1.10;;
25299;SDS011;13241;51.208;4.432;2022-08-07T15:07:53;1.50;;;1.00;;
25299;SDS011;13241;51.208;4.432;2022-08-07T15:10:24;2.88;;;1.13;;
25299;SDS011;13241;51.208;4.432;2022-08-07T15:13:16;1.67;;;0.70;;
25299;SDS011;13241;51.208;4.432;2022-08-07T15:15:52;1.60;;;1.10;;
25299;SDS011;13241;51.208;4.432;2022-08-07T15:18:29;1.27;;;0.85;;
25299;SDS011;13241;51.208;4.432;2022-08-07T15:21:28;5.65;;;1.23;;
25299;SDS011;13241;51.208;4.432;2022-08-07T15:24:19;1.00;;;0.90;;
25299;SDS011;13241;51.208;4.432;2022-08-07T15:27:16;1.33;;;1.02;;
25299;SDS011;13241;51.208;4.432;2022-08-07T15:29:49;1.95;;;1.13;;
25299;SDS011;13241;51.208;4.432;2022-08-07T15:32:39;1.83;;;0.90;;
25299;SDS011;13241;51.208;4.432;2022-08-07T15:35:27;9.50;;;1.02;;
25299;SDS011;13241;51.208;4.432;2022-08-07T15:38:18;2.25;;;1.10;;
25299;SDS011;13241;51.208;4.432;2022-08-07T15:41:10;3.40;;;1.20;;
25299;SDS011;13241;51.208;4.432;2022-08-07T15:44:03;2.28;;;1.23;;
25299;SDS011;13241;51.208;4.432;2022-08-07T15:46:34;4.28;;;1.05;;
25299;SDS011;13241;51.208;4.432;2022-08-07T15:49:17;4.15;;;0.82;;
25299;SDS011;13241;51.208;4.432;2022-08-07T15:52:13;5.85;;;1.10;;
25299;SDS011;13241;51.208;4.432;2022-08-07T15:54:46;2.03;;;1.13;;
25299;SDS011;13241;51.208;4.432;2022-08-07T15:57:19;4.75;;;1.38;;
25299;SDS011;13241;51.208;4.432;2022-08-07T16:00:06;3.67;;;1.40;;
25299;SDS011;13241;51.208;4.432;2022-08-07T16:02:43;4.03;;;1.55;;
25299;SDS011;13241;51.208;4.432;2022-08-07T16:05:14;6.97;;;1.75;;
25299;SDS011;13241;51.208;4.432;2022-08-07T16:07:47;7.60;;;1.38;;
25299;SDS011;13241;51.208;4.432;2022-08-07T16:10:40;1.45;;;1.30;;
25299;SDS011;13241;51.208;4.432;2022-08-07T16:19:07;3.42;;;1.25;;
25299;SDS011;13241;51.208;4.432;2022-08-07T16:22:26;4.20;;;1.60;;
25299;SDS011;13241;51.208;4.432;2022-08-07T16:28:26;1.85;;;1.08;;
25299;SDS011;13241;51.208;4.432;2022-08-07T16:40:36;3.30;;;1.48;;
25299;SDS011;13241;51.208;4.432;2022-08-07T16:50:20;4.45;;;1.73;;
25299;SDS011;13241;51.208;4.432;2022-08-07T16:53:27;3.22;;;1.30;;
25299;SDS011;13241;51.208;4.432;2022-08-07T17:05:25;5.50;;;2.20;;
25299;SDS011;13241;51.208;4.432;2022-08-07T17:08:38;3.22;;;1.20;;
25299;SDS011;13241;51.208;4.432;2022-08-07T17:11:38;2.30;;;1.52;;
25299;SDS011;13241;51.208;4.432;2022-08-07T17:14:45;4.65;;;1.50;;
25299;SDS011;13241;51.208;4.432;2022-08-07T17:17:31;4.18;;;1.48;;
25299;SDS011;13241;51.208;4.432;2022-08-07T17:20:14;7.57;;;1.33;;
25299;SDS011;13241;51.208;4.432;2022-08-07T17:25:52;4.45;;;1.58;;
25299;SDS011;13241;51.208;4.432;2022-08-07T17:28:46;1.67;;;1.27;;
25299;SDS011;13241;51.208;4.432;2022-08-07T17:32:02;2.58;;;1.65;;
25299;SDS011;13241;51.208;4.432;2022-08-07T17:35:11;1.23;;;1.02;;
25299;SDS011;13241;51.208;4.432;2022-08-07T17:41:26;3.50;;;1.33;;
25299;SDS011;13241;51.208;4.432;2022-08-07T17:44:41;3.55;;;1.67;;
25299;SDS011;13241;51.208;4.432;2022-08-07T17:47:34;4.28;;;1.38;;
25299;SDS011;13241;51.208;4.432;2022-08-07T17:50:10;2.90;;;1.63;;
25299;SDS011;13241;51.208;4.432;2022-08-07T17:52:48;3.75;;;1.33;;
25299;SDS011;13241;51.208;4.432;2022-08-07T17:55:31;2.08;;;1.15;;
25299;SDS011;13241;51.208;4.432;2022-08-07T17:58:43;1.15;;;1.05;;
25299;SDS011;13241;51.208;4.432;2022-08-07T18:01:43;2.63;;;1.52;;
25299;SDS011;13241;51.208;4.432;2022-08-07T18:04:33;1.70;;;1.10;;
25299;SDS011;13241;51.208;4.432;2022-08-07T18:07:12;3.63;;;1.58;;
25299;SDS011;13241;51.208;4.432;2022-08-07T18:10:10;2.03;;;1.23;;
25299;SDS011;13241;51.208;4.432;2022-08-07T18:15:50;2.42;;;1.48;;
25299;SDS011;13241;51.208;4.432;2022-08-07T18:18:30;4.28;;;1.70;;
25299;SDS011;13241;51.208;4.432;2022-08-07T18:21:39;4.67;;;1.83;;
25299;SDS011;13241;51.208;4.432;2022-08-07T18:24:30;3.92;;;1.50;;
25299;SDS011;13241;51.208;4.432;2022-08-07T18:47:53;3.45;;;1.60;;
25299;SDS011;13241;51.208;4.432;2022-08-07T18:50:42;1.77;;;1.45;;
25299;SDS011;13241;51.208;4.432;2022-08-07T18:59:38;2.35;;;1.48;;
25299;SDS011;13241;51.208;4.432;2022-08-07T19:05:50;2.45;;;1.63;;
25299;SDS011;13241;51.208;4.432;2022-08-07T19:08:39;3.85;;;2.47;;
25299;SDS011;13241;51.208;4.432;2022-08-07T19:11:37;3.65;;;1.95;;
25299;SDS011;13241;51.208;4.432;2022-08-07T19:14:48;5.03;;;1.40;;
25299;SDS011;13241;51.208;4.432;2022-08-07T19:18:11;4.25;;;1.52;;
25299;SDS011;13241;51.208;4.432;2022-08-07T19:20:46;1.58;;;1.30;;
25299;SDS011;13241;51.208;4.432;2022-08-07T19:23:43;3.63;;;1.70;;
25299;SDS011;13241;51.208;4.432;2022-08-07T19:26:33;3.15;;;1.70;;
25299;SDS011;13241;51.208;4.432;2022-08-07T19:29:24;2.53;;;1.65;;
25299;SDS011;13241;51.208;4.432;2022-08-07T19:32:15;2.83;;;1.70;;
25299;SDS011;13241;51.208;4.432;2022-08-07T19:34:58;4.47;;;1.77;;
25299;SDS011;13241;51.208;4.432;2022-08-07T19:37:29;3.83;;;2.17;;
25299;SDS011;13241;51.208;4.432;2022-08-07T19:40:18;4.60;;;1.50;;
25299;SDS011;13241;51.208;4.432;2022-08-07T19:43:00;3.13;;;1.92;;
25299;SDS011;13241;51.208;4.432;2022-08-07T19:45:36;3.42;;;1.40;;
25299;SDS011;13241;51.208;4.432;2022-08-07T19:48:34;6.70;;;1.50;;
25299;SDS011;13241;51.208;4.432;2022-08-07T19:51:10;3.35;;;1.80;;
25299;SDS011;13241;51.208;4.432;2022-08-07T19:53:53;6.13;;;2.22;;
25299;SDS011;13241;51.208;4.432;2022-08-07T19:56:43;4.93;;;2.10;;
25299;SDS011;13241;51.208;4.432;2022-08-07T19:59:33;2.80;;;1.27;;
25299;SDS011;13241;51.208;4.432;2022-08-07T20:02:06;8.15;;;1.85;;
25299;SDS011;13241;51.208;4.432;2022-08-07T20:04:54;2.70;;;1.70;;
25299;SDS011;13241;51.208;4.432;2022-08-07T20:07:26;3.38;;;1.85;;
25299;SDS011;13241;51.208;4.432;2022-08-07T20:10:24;4.45;;;2.08;;
25299;SDS011;13241;51.208;4.432;2022-08-07T20:13:17;8.30;;;1.85;;
25299;SDS011;13241;51.208;4.432;2022-08-07T20:15:58;5.20;;;1.80;;
25299;SDS011;13241;51.208;4.432;2022-08-07T20:18:30;9.70;;;2.42;;
25299;SDS011;13241;51.208;4.432;2022-08-07T20:21:02;3.15;;;2.08;;
25299;SDS011;13241;51.208;4.432;2022-08-07T20:23:49;3.08;;;1.85;;